SKCG/CTG METAR and TAF weather

Enter ICAO airport designator
Station Type Date Time Source
SKCG METAR 2022/08/16 19:00 UTC NOAA

SKCG 161900Z 27007KT 230V360 9999 SCT017 30/24 Q1011 RMK A2985


Station Type Date Time Source
SKCG Decoded METAR 2022/08/16 19:00 UTC NOAA

Cartagena / Rafael Nunez, Colombia (SKCG) 10-27N 075-31W 12M
Aug 16, 2022 - 03:00 PM EDT / 2022.08.16 1900 UTC
Wind: from the W (270 degrees) at 8 MPH (7 KT) (direction variable):0
Visibility: greater than 7 mile(s):0
Sky conditions: partly cloudy
Temperature: 86 F (30 C)
Heat index: 95.0 F (35.0 C):1
Dew Point: 75 F (24 C)
Relative Humidity: 70%
Pressure (altimeter): 29.85 in. Hg (1011 hPa)
ob: SKCG 161900Z 27007KT 230V360 9999 SCT017 30/24 Q1011 RMK A2985
cycle: 19

Station Type Date Time Source
SKCG TAF 2022/08/16 18:40 UTC NOAA

TAF SKCG 161630Z 1618/1718 25008KT 9999 SCT017
TEMPO 1618/1621 DZRA SCT017TCU
BECMG 1700/1702 VRB03KT FEW015 TX31/1618Z TN24/1710Z

Example: see airport list